Sapporo, Japan

1:21 AM JST on 三月 28, 2017 (GMT +0900)
Rue des Sausses | | Change Station

高度 0 ft 43.05 °N, 141.33 °E | Updated 8 minutes ago

晴
34.3 °F
体感気温 34 °F
1.2
風 変数 風 から 南南西
Gusts 1.9 Mph

今日
高い -- | 低 -- °F
--% 降水確率
昨日
高い -- | 低 -- °F
Precip. -- インチ
気圧 29.95 インチ
視程 6.2 マイル
わずか 1000 ft
やや曇 7000 ft
体感気温(寒さ) 34 °F
露点温度 27 °F
湿度 75%
降水 0.10 インチ
積雪深 利用不可。
5:24 AM 5:55 PM
二十六夜, 0% visible
METAR RJCC 271600Z 13002KT 9999 FEW010 SCT070 M03/M03 Q1014 RMK 1ST010 4AC070 A2995
気圧 29.95 インチ
視程 6.2 マイル
わずか 1000 ft
やや曇 7000 ft
体感気温(寒さ) 34 °F
露点温度 27 °F
湿度 75%
降水 0.10 インチ
積雪深 利用不可。
5:24 AM 5:55 PM
二十六夜, 0% visible
METAR RJCC 271600Z 13002KT 9999 FEW010 SCT070 M03/M03 Q1014 RMK 1ST010 4AC070 A2995

Get Severe Weather Alerts

Thanks for signing up!

Be on the lookout for a verification email in your inbox.

You'll start receiving the daily forecast at 8 AM.

×

10-Day Weather Forecast

No radar image for this location.
×

Almanac

天文

Mar. 28, 2017 入り
実時間
常用薄明
航海薄明
天文薄明
可視光の長さ
可照時間
Tomorrow will be .
, % of the Moon is Illuminated

今日の極値

Country Highs Country Lows

Community

WunderPhotos

Upload Photos

1,962,540 写真がアップロードされました!

WunderBlog® & News

Nearby

空気品質

  空気品質 大気質指数 汚染物質
Not available.

積雪深

Station Depth 高度

地震活動

Distance Mag. Time & Date
Minimum magnitude displayed is 2.5.

地震活動

Distance Mag. Time & Date
Minimum magnitude displayed is 2.5.

沿岸の水温

地名 気温

Stations

最寄りの気象観測所

観測所位置 温度 体感気温(寒さ) 露点温度 湿度 Precip. 高度 更新日時 タイプする